Terminal Aerodrome Forecast
Issued by NWS

Home | Current Version | Previous Version | Text Only | Print | Product List | Glossary Off
Versions: 1 2 3 4 5 6 7 8 9 10 11 12 13 14 15 16 17 18 19 20 21

000
FTUS43 KMPX 211600 AAA
TAFAXN
TAF AMD
KAXN 211604Z 2116/2212 33014G18KT P6SM BKN020
     FM211900 34013G19KT P6SM BKN070
     FM212200 33008KT P6SM FEW090
     FM220200 VRB02KT P6SM SKC=

USA.gov is the U.S. government's official web portal to all federal, state and local government web resources and services.